Time;durP1;ratioP1;P1;durP2;ratioP2;P2;SDS_P1;SDS_P2;PMS_P1;PMS_P2;Temp;Humidity;BMP_temperature;BMP_pressure;BME280_temperature;BME280_humidity;BME280_pressure;Samples;Min_cycle;Max_cycle;Signal;HPM_P1;HPM_P2
2022/07/07 00:02:21;;;;;;;3.23;2.93;;;15.50;97.70;;;;;;4982147;28;20468;-93
2022/07/07 00:04:47;;;;;;;3.70;2.90;;;15.40;98.00;;;;;;4983447;28;20189;-93
2022/07/07 00:07:12;;;;;;;3.60;2.90;;;15.50;98.00;;;;;;4966157;28;20457;-92
2022/07/07 00:09:38;;;;;;;3.43;3.17;;;15.60;97.50;;;;;;4968456;28;20553;-90
2022/07/07 00:12:16;;;;;;;3.20;2.73;;;15.60;97.60;;;;;;4967265;28;20189;-90
2022/07/07 00:14:42;;;;;;;3.00;2.80;;;15.60;97.70;;;;;;4964489;28;20199;-90
2022/07/07 00:17:10;;;;;;;4.80;3.00;;;15.30;97.80;;;;;;4981588;28;20440;-93
2022/07/07 00:19:35;;;;;;;3.10;2.70;;;15.60;97.90;;;;;;4963564;28;20193;-92
2022/07/07 00:22:01;;;;;;;2.87;2.67;;;15.60;97.90;;;;;;4961080;28;20464;-91
2022/07/07 00:24:27;;;;;;;3.23;2.90;;;15.40;97.80;;;;;;4960099;28;20213;-91
2022/07/07 00:26:53;;;;;;;3.20;2.60;;;15.30;98.30;;;;;;4972500;28;20298;-92
2022/07/07 00:29:21;;;;;;;4.13;2.90;;;15.40;98.40;;;;;;4984857;28;20185;-93
2022/07/07 00:31:46;;;;;;;3.67;3.37;;;15.50;98.60;;;;;;4985944;28;20802;-93
2022/07/07 00:34:12;;;;;;;3.47;3.17;;;15.40;98.60;;;;;;4969034;28;20811;-93
2022/07/07 00:36:39;;;;;;;2.70;2.50;;;15.40;98.50;;;;;;4969735;28;20190;-93
2022/07/07 00:39:06;;;;;;;4.40;4.00;;;15.30;98.80;;;;;;4970388;28;20236;-93
2022/07/07 00:41:42;;;;;;;3.67;3.33;;;15.30;98.80;;;;;;4985785;28;20441;-91
2022/07/07 00:44:27;;;;;;;4.37;3.33;;;15.20;98.80;;;;;;4970239;28;21070;-90
2022/07/07 00:46:57;;;;;;;2.87;2.53;;;15.30;99.00;;;;;;4966811;28;20177;-90
2022/07/07 00:49:23;;;;;;;4.13;3.10;;;15.20;99.50;;;;;;4963719;28;20440;-92
2022/07/07 00:51:49;;;;;;;6.53;3.00;;;15.20;99.40;;;;;;4965222;28;20448;-91
2022/07/07 00:54:17;;;;;;;2.93;2.73;;;15.20;99.60;;;;;;4968894;28;20221;-90
2022/07/07 00:56:45;;;;;;;3.23;3.03;;;15.10;99.30;;;;;;4981998;28;20457;-90
2022/07/07 00:59:14;;;;;;;3.40;3.10;;;15.00;99.90;;;;;;4986771;28;20804;-90
2022/07/07 01:01:41;;;;;;;3.47;3.17;;;15.10;99.60;;;;;;4968747;28;20448;-89
2022/07/07 01:04:09;;;;;;;4.67;2.97;;;15.10;99.90;;;;;;4983263;28;20452;-89
2022/07/07 01:06:35;;;;;;;3.20;2.90;;;15.20;99.70;;;;;;4963860;28;20554;-89
2022/07/07 01:09:01;;;;;;;3.30;3.00;;;15.20;99.60;;;;;;4967026;28;22566;-90
2022/07/07 01:11:27;;;;;;;3.87;3.27;;;15.30;99.90;;;;;;4981958;28;20812;-90
2022/07/07 01:13:53;;;;;;;3.70;3.40;;;15.20;99.60;;;;;;4973638;28;20485;-89
2022/07/07 01:16:18;;;;;;;3.50;3.20;;;15.10;99.90;;;;;;4982797;28;20437;-88
2022/07/07 01:18:44;;;;;;;3.53;3.27;;;14.90;99.90;;;;;;4965197;28;20194;-89
2022/07/07 01:21:13;;;;;;;4.40;3.23;;;14.90;99.90;;;;;;4982474;28;20556;-89
2022/07/07 01:23:41;;;;;;;5.80;3.20;;;15.00;99.90;;;;;;4969044;28;20190;-89
2022/07/07 01:26:17;;;;;;;5.93;3.50;;;15.10;99.90;;;;;;4985076;28;20983;-89
2022/07/07 01:28:42;;;;;;;5.23;3.40;;;15.10;99.90;;;;;;4965526;28;20451;-89
2022/07/07 01:31:10;;;;;;;3.60;3.30;;;15.00;99.90;;;;;;4985483;28;20966;-88
2022/07/07 01:33:39;;;;;;;4.67;3.33;;;15.00;99.90;;;;;;4964424;28;20566;-88
2022/07/07 01:36:05;;;;;;;3.93;3.63;;;14.90;99.90;;;;;;4965191;28;20429;-88
2022/07/07 01:38:30;;;;;;;3.43;3.13;;;14.90;99.90;;;;;;4964305;28;20818;-90
2022/07/07 01:40:56;;;;;;;4.03;3.60;;;14.70;99.90;;;;;;4987901;28;20194;-90
2022/07/07 01:43:21;;;;;;;3.50;3.20;;;14.70;99.90;;;;;;4965046;28;20198;-89
2022/07/07 01:45:47;;;;;;;4.27;3.87;;;14.70;99.90;;;;;;4966366;28;20218;-89
2022/07/07 01:48:13;;;;;;;3.67;3.47;;;14.70;99.90;;;;;;4976990;28;20220;-90
2022/07/07 01:50:39;;;;;;;4.13;3.73;;;14.70;99.90;;;;;;4992208;28;20453;-90
2022/07/07 01:53:04;;;;;;;3.43;3.23;;;14.70;99.90;;;;;;4968281;28;20304;-88
2022/07/07 01:55:30;;;;;;;3.80;3.40;;;14.80;99.90;;;;;;4984005;28;20457;-90
2022/07/07 01:57:55;;;;;;;4.23;3.93;;;14.70;99.90;;;;;;4964977;28;20284;-89
2022/07/07 02:00:21;;;;;;;4.37;3.83;;;14.70;99.90;;;;;;4984783;28;20943;-89
2022/07/07 02:02:46;;;;;;;4.27;3.87;;;14.80;99.90;;;;;;4964162;28;20205;-89
2022/07/07 02:05:12;;;;;;;3.87;3.57;;;14.60;99.90;;;;;;4983227;28;20201;-90
2022/07/07 02:07:56;;;;;;;4.10;3.23;;;14.50;99.90;;;;;;4979959;28;20326;-90
2022/07/07 02:13:08;;;;;;;5.63;4.03;;;14.60;99.90;;;;;;4982564;28;20619;-90
2022/07/07 02:15:46;;;;;;;4.53;3.80;;;14.60;99.90;;;;;;4969579;28;21033;-90
2022/07/07 02:18:12;;;;;;;5.73;3.70;;;14.70;99.90;;;;;;4977784;28;20228;-90
2022/07/07 02:20:38;;;;;;;3.53;3.27;;;14.60;99.90;;;;;;4969182;28;20962;-90
2022/07/07 02:23:03;;;;;;;4.60;4.10;;;14.50;99.90;;;;;;4978029;28;20212;-90
2022/07/07 02:25:29;;;;;;;4.23;3.93;;;14.60;99.90;;;;;;4983826;28;20476;-90
2022/07/07 02:27:54;;;;;;;4.07;3.67;;;14.70;99.90;;;;;;4983934;28;20297;-89
2022/07/07 02:30:37;;;;;;;4.23;3.93;;;14.60;99.90;;;;;;4969707;28;20213;-89
2022/07/07 02:33:03;;;;;;;4.03;3.73;;;14.50;99.90;;;;;;4981979;28;20312;-89
2022/07/07 02:35:29;;;;;;;4.73;4.03;;;14.50;99.90;;;;;;4965009;28;20557;-89
2022/07/07 02:37:54;;;;;;;3.77;3.40;;;14.60;99.90;;;;;;4967151;28;20260;-90
2022/07/07 02:40:20;;;;;;;4.40;4.03;;;14.60;99.90;;;;;;4986101;28;20177;-90
2022/07/07 02:42:45;;;;;;;5.70;3.70;;;14.60;99.90;;;;;;4985416;28;20549;-90
2022/07/07 02:45:11;;;;;;;5.10;3.73;;;14.60;99.90;;;;;;4985852;28;20193;-90
2022/07/07 02:47:36;;;;;;;4.40;4.00;;;14.50;99.90;;;;;;4962432;28;20185;-89
2022/07/07 02:50:02;;;;;;;4.30;4.00;;;14.40;99.90;;;;;;5002800;28;20250;-91
2022/07/07 02:52:28;;;;;;;4.20;3.90;;;14.50;99.90;;;;;;5004734;28;20190;-90
2022/07/07 02:54:55;;;;;;;4.07;3.77;;;14.70;99.90;;;;;;4987342;28;20637;-91
2022/07/07 02:57:21;;;;;;;4.47;3.83;;;14.70;99.90;;;;;;4986477;28;20227;-91
2022/07/07 02:59:46;;;;;;;4.00;3.43;;;14.70;99.90;;;;;;4966285;28;20518;-91
2022/07/07 03:02:12;;;;;;;4.07;3.77;;;14.70;99.90;;;;;;4964669;28;20173;-91
2022/07/07 03:04:37;;;;;;;4.03;3.43;;;14.70;99.90;;;;;;4966256;28;20217;-90
2022/07/07 03:07:03;;;;;;;3.63;3.33;;;14.80;99.90;;;;;;4964371;28;20278;-91
2022/07/07 03:09:29;;;;;;;4.33;3.93;;;14.70;99.90;;;;;;4984231;28;20182;-91
2022/07/07 03:11:54;;;;;;;5.33;3.63;;;14.70;99.90;;;;;;4982115;28;20208;-91
2022/07/07 03:14:20;;;;;;;3.97;3.63;;;14.60;99.90;;;;;;4967622;28;20236;-90
2022/07/07 03:16:45;;;;;;;4.13;3.73;;;14.70;99.90;;;;;;4976556;28;20185;-91
2022/07/07 03:19:11;;;;;;;3.70;3.50;;;14.60;99.90;;;;;;4970496;28;20202;-91
2022/07/07 03:21:39;;;;;;;3.93;3.30;;;14.70;99.90;;;;;;4984318;28;20441;-91
2022/07/07 03:24:05;;;;;;;3.97;3.67;;;14.70;99.90;;;;;;4962546;28;20436;-92
2022/07/07 03:26:31;;;;;;;4.40;4.00;;;14.60;99.90;;;;;;4978439;28;20751;-92
2022/07/07 03:28:56;;;;;;;3.73;3.53;;;14.50;99.90;;;;;;4964974;28;20453;-93
2022/07/07 03:31:22;;;;;;;3.97;3.67;;;14.50;99.90;;;;;;4980273;28;20233;-92
2022/07/07 03:33:48;;;;;;;4.37;3.77;;;14.50;99.90;;;;;;4965207;28;20225;-90
2022/07/07 03:36:13;;;;;;;3.80;3.53;;;14.60;99.90;;;;;;4977673;28;20471;-91
2022/07/07 03:38:39;;;;;;;4.03;3.70;;;14.50;99.90;;;;;;4964888;28;20194;-91
2022/07/07 03:41:05;;;;;;;4.00;3.70;;;14.60;99.90;;;;;;4978657;28;20185;-92
2022/07/07 03:43:30;;;;;;;3.70;3.40;;;14.60;99.90;;;;;;4964234;28;20190;-92
2022/07/07 03:45:56;;;;;;;4.03;3.73;;;14.80;99.90;;;;;;4967353;28;20276;-92
2022/07/07 03:48:21;;;;;;;4.23;3.80;;;14.70;99.90;;;;;;4960780;28;20188;-91
2022/07/07 03:50:47;;;;;;;3.90;3.60;;;14.60;99.90;;;;;;4981847;28;20186;-92
2022/07/07 03:53:13;;;;;;;4.17;3.77;;;14.60;99.90;;;;;;4962834;28;20260;-93
2022/07/07 03:55:38;;;;;;;5.40;3.70;;;14.60;99.90;;;;;;4973158;28;20199;-91
2022/07/07 03:58:04;;;;;;;4.50;4.10;;;14.50;99.90;;;;;;4986041;28;20217;-91
2022/07/07 04:00:29;;;;;;;3.90;3.63;;;14.50;99.90;;;;;;4968775;28;20586;-90
2022/07/07 04:02:55;;;;;;;4.27;3.97;;;14.40;99.90;;;;;;4977812;28;20189;-91
2022/07/07 04:05:20;;;;;;;7.93;4.17;;;14.40;99.90;;;;;;4986788;28;20190;-91
2022/07/07 04:07:46;;;;;;;4.50;4.10;;;14.40;99.90;;;;;;4983408;28;20221;-91
2022/07/07 04:10:12;;;;;;;4.53;4.13;;;14.30;99.90;;;;;;4984820;28;20189;-92
2022/07/07 04:12:37;;;;;;;7.27;3.83;;;14.40;99.90;;;;;;4989794;28;20206;-90
2022/07/07 04:15:04;;;;;;;4.67;4.37;;;14.30;99.90;;;;;;4965365;28;20259;-91
2022/07/07 04:17:29;;;;;;;4.80;4.30;;;14.30;99.90;;;;;;4967868;28;20252;-90
2022/07/07 04:19:55;;;;;;;4.40;3.93;;;14.30;99.90;;;;;;4993124;28;20459;-91
2022/07/07 04:22:20;;;;;;;4.30;3.93;;;14.40;99.90;;;;;;4983249;28;20626;-90
2022/07/07 04:24:46;;;;;;;3.87;3.57;;;14.40;99.90;;;;;;4987614;28;20181;-90
2022/07/07 04:27:11;;;;;;;4.13;3.73;;;14.40;99.90;;;;;;4982222;28;20274;-91
2022/07/07 04:29:37;;;;;;;3.70;3.40;;;14.70;99.90;;;;;;4980821;28;20192;-89
2022/07/07 04:32:04;;;;;;;4.23;3.83;;;14.60;99.90;;;;;;4964536;28;20228;-90
2022/07/07 04:34:29;;;;;;;3.97;3.67;;;14.70;99.90;;;;;;4987636;28;20205;-89
2022/07/07 04:36:55;;;;;;;3.77;3.47;;;14.70;99.90;;;;;;4972104;28;20429;-90
2022/07/07 04:39:21;;;;;;;4.03;3.73;;;14.60;99.90;;;;;;4968680;28;20185;-91
2022/07/07 04:41:46;;;;;;;4.70;4.27;;;14.60;99.90;;;;;;4969479;28;20192;-90
2022/07/07 04:44:12;;;;;;;3.67;3.47;;;14.60;99.90;;;;;;4965893;28;20856;-90
2022/07/07 04:46:38;;;;;;;3.80;3.50;;;14.50;99.90;;;;;;4967868;28;20240;-89
2022/07/07 04:49:03;;;;;;;3.67;3.40;;;14.60;99.90;;;;;;4987952;28;20448;-90
2022/07/07 04:51:29;;;;;;;7.33;3.67;;;14.70;99.90;;;;;;4975568;28;20182;-90
2022/07/07 04:53:55;;;;;;;3.77;3.47;;;14.70;99.90;;;;;;4962966;28;20205;-89
2022/07/07 04:56:21;;;;;;;3.70;3.50;;;14.70;99.90;;;;;;4964490;28;20177;-90
2022/07/07 04:58:46;;;;;;;4.10;3.73;;;14.70;99.90;;;;;;4982978;28;20449;-90
2022/07/07 05:01:12;;;;;;;8.00;3.90;;;14.70;99.90;;;;;;4984069;28;20201;-90
2022/07/07 05:03:37;;;;;;;5.53;3.83;;;14.70;99.90;;;;;;4965675;28;20240;-90
2022/07/07 05:06:03;;;;;;;3.70;3.50;;;14.60;99.90;;;;;;4969526;28;20174;-89
2022/07/07 05:08:32;;;;;;;3.90;3.40;;;14.60;99.90;;;;;;4959523;28;20328;-90
2022/07/07 05:11:00;;;;;;;3.33;3.13;;;14.70;99.90;;;;;;4972262;28;20440;-90
2022/07/07 05:13:26;;;;;;;3.67;3.30;;;14.70;99.90;;;;;;4983646;28;20567;-90
2022/07/07 05:15:54;;;;;;;4.13;3.70;;;14.60;99.90;;;;;;4966279;28;20568;-91
2022/07/07 05:18:23;;;;;;;3.57;3.27;;;14.60;99.90;;;;;;4967914;28;20197;-90
2022/07/07 05:20:50;;;;;;;6.93;4.30;;;14.50;99.90;;;;;;4982753;28;20972;-90
2022/07/07 05:23:19;;;;;;;3.53;3.30;;;14.60;99.90;;;;;;4966857;28;20449;-91
2022/07/07 05:25:44;;;;;;;4.20;3.90;;;14.90;99.90;;;;;;4980280;28;20544;-90
2022/07/07 05:28:12;;;;;;;3.63;3.37;;;14.90;99.90;;;;;;4988798;28;20200;-91
2022/07/07 05:30:38;;;;;;;4.70;4.13;;;15.10;99.90;;;;;;4985373;28;20177;-91
2022/07/07 05:33:07;;;;;;;5.17;4.50;;;15.20;99.90;;;;;;4985614;28;20472;-91
2022/07/07 05:35:33;;;;;;;4.20;3.90;;;15.20;99.90;;;;;;4965080;28;20173;-90
2022/07/07 05:37:59;;;;;;;4.93;3.40;;;15.20;99.90;;;;;;4948675;28;20491;-91
2022/07/07 05:40:24;;;;;;;4.43;4.03;;;15.30;99.90;;;;;;4963654;28;20449;-90
2022/07/07 05:42:52;;;;;;;3.90;3.60;;;15.30;99.90;;;;;;4966552;28;20197;-92
2022/07/07 05:45:18;;;;;;;3.77;3.47;;;15.50;99.90;;;;;;4986491;28;20536;-92
2022/07/07 05:47:45;;;;;;;4.43;4.10;;;15.20;99.90;;;;;;4981185;28;20200;-92
2022/07/07 05:50:11;;;;;;;4.10;3.83;;;15.20;99.90;;;;;;4980702;28;20693;-92
2022/07/07 05:52:40;;;;;;;3.70;3.40;;;15.20;99.90;;;;;;4984757;28;20504;-93
2022/07/07 05:55:08;;;;;;;4.73;3.90;;;15.20;99.90;;;;;;4962389;28;20244;-91
2022/07/07 05:57:34;;;;;;;3.23;3.00;;;15.20;99.90;;;;;;4974533;28;20465;-94
2022/07/07 05:59:59;;;;;;;4.37;3.90;;;15.40;99.90;;;;;;4971470;28;20481;-91
2022/07/07 06:02:25;;;;;;;3.73;3.40;;;15.30;99.90;;;;;;4983602;28;20213;-91
2022/07/07 06:04:51;;;;;;;3.70;3.40;;;15.30;99.90;;;;;;4969859;28;20225;-92
2022/07/07 06:07:17;;;;;;;4.40;4.10;;;15.50;99.90;;;;;;4966394;28;20189;-93
2022/07/07 06:09:42;;;;;;;3.83;3.63;;;15.60;99.90;;;;;;4989072;28;20185;-92
2022/07/07 06:12:11;;;;;;;3.70;3.40;;;15.60;99.90;;;;;;4960101;28;21018;-93
2022/07/07 06:14:37;;;;;;;3.90;3.60;;;15.60;99.90;;;;;;4976077;28;20289;-91
2022/07/07 06:17:02;;;;;;;3.53;3.33;;;15.60;99.90;;;;;;4974127;28;20433;-91
2022/07/07 06:19:28;;;;;;;3.97;3.60;;;15.70;99.90;;;;;;4981466;28;20553;-90
2022/07/07 06:21:56;;;;;;;3.57;3.27;;;15.80;99.90;;;;;;4978844;28;20205;-92
2022/07/07 06:24:22;;;;;;;5.00;3.30;;;15.80;99.90;;;;;;4963520;28;20551;-92
2022/07/07 06:26:48;;;;;;;4.20;3.60;;;15.80;99.90;;;;;;4979958;28;20443;-92
2022/07/07 06:29:13;;;;;;;3.40;3.20;;;15.70;99.90;;;;;;4967560;28;20190;-89
2022/07/07 06:31:51;;;;;;;5.60;3.57;;;15.80;99.90;;;;;;4989222;28;20183;-96
2022/07/07 06:34:17;;;;;;;4.43;3.70;;;16.00;99.90;;;;;;4981593;28;20706;-94
2022/07/07 06:36:42;;;;;;;3.60;3.30;;;15.90;99.90;;;;;;4961676;28;20443;-92
2022/07/07 06:39:08;;;;;;;4.97;3.20;;;16.00;99.90;;;;;;4977868;28;20181;-95
2022/07/07 06:41:37;;;;;;;4.00;3.70;;;16.00;99.90;;;;;;4983263;28;20282;-93
2022/07/07 06:44:04;;;;;;;5.40;3.33;;;16.00;99.90;;;;;;4997716;28;20190;-96
2022/07/07 06:46:30;;;;;;;3.97;3.30;;;16.20;99.90;;;;;;4993529;28;20431;-96
2022/07/07 06:48:56;;;;;;;3.80;3.40;;;16.00;99.90;;;;;;4997212;28;20437;-96
2022/07/07 06:51:22;;;;;;;3.80;3.50;;;16.30;99.90;;;;;;4984881;28;20184;-96
2022/07/07 06:53:47;;;;;;;3.93;3.10;;;16.30;99.90;;;;;;4993569;28;20469;-96
2022/07/07 06:56:13;;;;;;;3.17;2.97;;;16.40;99.90;;;;;;4982234;28;20190;-96
2022/07/07 06:58:38;;;;;;;4.23;3.40;;;16.50;99.90;;;;;;5004632;28;20185;-96
2022/07/07 07:01:04;;;;;;;3.60;3.30;;;16.70;99.90;;;;;;4986157;28;20197;-92
2022/07/07 07:03:30;;;;;;;4.10;3.50;;;16.80;99.90;;;;;;4991965;28;20190;-96
2022/07/07 07:05:56;;;;;;;4.83;3.97;;;17.00;99.90;;;;;;4992063;28;20192;-96
2022/07/07 07:08:41;;;;;;;3.57;3.30;;;17.20;99.90;;;;;;4996905;28;20217;-96
2022/07/07 07:11:06;;;;;;;3.13;2.93;;;17.30;99.90;;;;;;4992797;28;20185;-96
2022/07/07 07:18:46;;;;;;;4.10;3.40;;;17.90;99.90;;;;;;5631523;22;20499;-95
2022/07/07 07:21:27;;;;;;;5.27;3.60;;;18.10;99.90;;;;;;5009430;28;20811;-96
2022/07/07 07:23:53;;;;;;;2.73;2.53;;;18.20;99.90;;;;;;5005882;28;20432;-96
2022/07/07 07:26:23;;;;;;;2.93;2.73;;;18.50;99.90;;;;;;5026332;28;20535;-96
2022/07/07 07:28:49;;;;;;;3.50;2.73;;;18.20;99.90;;;;;;4984666;28;20180;-96
2022/07/07 07:31:15;;;;;;;4.00;3.10;;;19.00;99.90;;;;;;4997393;28;20490;-96
2022/07/07 07:33:40;;;;;;;3.17;2.87;;;18.60;99.90;;;;;;4990143;28;20685;-95
2022/07/07 07:36:07;;;;;;;4.03;3.30;;;18.90;99.40;;;;;;4988644;28;20263;-92
2022/07/07 07:38:35;;;;;;;3.93;3.07;;;18.70;99.40;;;;;;4988725;28;20193;-96
2022/07/07 07:41:02;;;;;;;9.80;6.80;;;18.90;99.00;;;;;;5015186;28;20490;-96
2022/07/07 07:43:28;;;;;;;5.57;4.00;;;18.90;99.10;;;;;;4994546;28;20452;-95
2022/07/07 07:45:54;;;;;;;15.50;14.17;;;19.20;99.40;;;;;;4991527;28;20720;-95
2022/07/07 07:48:19;;;;;;;4.73;2.87;;;19.20;98.50;;;;;;5008647;28;20608;-96
2022/07/07 07:50:45;;;;;;;4.33;2.40;;;19.30;98.20;;;;;;4992275;28;20675;-90
2022/07/07 07:53:10;;;;;;;3.03;2.60;;;19.40;98.30;;;;;;4980316;28;20750;-87
2022/07/07 07:55:36;;;;;;;3.20;2.90;;;19.60;98.20;;;;;;4976263;28;20659;-87
2022/07/07 07:58:09;;;;;;;5.07;2.97;;;19.60;98.10;;;;;;4990396;28;20193;-85
2022/07/07 08:00:35;;;;;;;2.90;2.70;;;19.30;96.30;;;;;;4977412;28;20439;-84
2022/07/07 08:03:00;;;;;;;2.80;2.60;;;19.00;95.80;;;;;;5013829;28;20448;-83
2022/07/07 08:05:26;;;;;;;2.90;2.70;;;19.10;96.70;;;;;;4976306;28;20931;-82
2022/07/07 08:07:52;;;;;;;3.00;2.80;;;19.20;95.80;;;;;;4981365;28;20216;-81
2022/07/07 08:10:18;;;;;;;2.70;2.50;;;19.00;95.60;;;;;;4975062;28;20662;-83
2022/07/07 08:12:44;;;;;;;3.20;2.77;;;19.10;96.00;;;;;;4977556;28;20240;-83
2022/07/07 08:15:11;;;;;;;2.97;2.73;;;19.30;95.90;;;;;;4980222;28;20462;-82
2022/07/07 08:17:36;;;;;;;2.73;2.53;;;19.20;96.10;;;;;;4981880;28;20941;-84
2022/07/07 08:20:04;;;;;;;3.30;2.83;;;19.10;96.30;;;;;;5000862;28;20466;-84
2022/07/07 08:22:29;;;;;;;3.20;2.43;;;18.90;96.90;;;;;;5008555;28;20203;-84
2022/07/07 08:25:07;;;;;;;5.50;2.83;;;18.90;96.80;;;;;;4994038;28;20456;-85
2022/07/07 08:27:33;;;;;;;3.87;2.93;;;19.10;97.60;;;;;;4978867;28;20481;-85
2022/07/07 08:30:00;;;;;;;4.33;2.40;;;19.40;97.10;;;;;;4969986;28;20623;-84
2022/07/07 08:32:26;;;;;;;3.60;2.90;;;19.50;96.90;;;;;;4982269;28;20500;-84
2022/07/07 08:34:51;;;;;;;3.00;2.80;;;19.80;96.80;;;;;;4986608;28;20439;-86
2022/07/07 08:37:17;;;;;;;4.70;3.00;;;20.20;95.90;;;;;;4978785;28;20209;-85
2022/07/07 08:39:42;;;;;;;2.90;2.70;;;20.50;96.00;;;;;;4978249;28;20213;-85
2022/07/07 08:42:08;;;;;;;2.87;2.50;;;21.00;95.40;;;;;;4982609;28;20181;-85
2022/07/07 08:44:35;;;;;;;2.80;2.60;;;20.70;96.20;;;;;;4986570;28;20188;-89
2022/07/07 08:47:01;;;;;;;4.10;2.80;;;20.50;95.80;;;;;;4974331;28;20440;-90
2022/07/07 08:49:33;;;;;;;3.50;3.20;;;20.00;96.80;;;;;;4984276;28;20554;-92
2022/07/07 08:52:09;;;;;;;3.70;2.97;;;19.70;97.40;;;;;;5002184;28;20431;-90
2022/07/07 08:54:39;;;;;;;4.70;3.03;;;19.60;98.40;;;;;;4972434;28;20483;-90
2022/07/07 08:57:05;;;;;;;3.40;3.10;;;19.30;97.20;;;;;;4977951;28;20973;-92
2022/07/07 08:59:32;;;;;;;3.30;3.00;;;19.10;98.00;;;;;;4979458;28;21023;-90
2022/07/07 09:02:00;;;;;;;3.53;3.23;;;19.00;98.20;;;;;;4979653;28;20530;-92
2022/07/07 09:04:26;;;;;;;3.40;3.10;;;19.00;98.60;;;;;;4977492;28;20799;-90
2022/07/07 09:06:55;;;;;;;3.33;3.03;;;19.20;98.50;;;;;;4970607;28;20445;-94
2022/07/07 09:09:38;;;;;;;3.40;3.00;;;19.50;97.90;;;;;;4978757;28;20443;-93
2022/07/07 09:12:08;;;;;;;3.63;3.43;;;19.70;97.60;;;;;;5000519;28;20958;-89
2022/07/07 09:14:36;;;;;;;3.23;2.93;;;19.90;98.00;;;;;;4980284;28;20554;-89
2022/07/07 09:17:02;;;;;;;3.47;3.27;;;20.10;96.70;;;;;;4974525;28;20470;-89
2022/07/07 09:19:28;;;;;;;3.30;3.10;;;20.00;96.70;;;;;;4976685;28;20496;-89
2022/07/07 09:21:54;;;;;;;4.03;3.60;;;19.90;97.00;;;;;;4988303;28;20466;-89
2022/07/07 09:24:19;;;;;;;3.47;3.10;;;20.00;97.20;;;;;;4979565;28;20177;-89
2022/07/07 09:26:48;;;;;;;6.43;3.53;;;20.00;97.20;;;;;;4983189;28;20188;-88
2022/07/07 09:29:17;;;;;;;4.30;3.87;;;19.80;96.90;;;;;;4981298;28;20189;-89
2022/07/07 09:32:00;;;;;;;4.13;3.83;;;19.70;97.30;;;;;;4980447;28;20445;-89
2022/07/07 09:34:28;;;;;;;4.10;3.43;;;19.60;97.30;;;;;;5015088;28;20981;-91
2022/07/07 09:39:46;;;;;;;4.67;4.20;;;19.80;97.90;;;;;;4989969;28;20442;-86
2022/07/07 09:42:31;;;;;;;3.73;3.37;;;20.00;97.50;;;;;;4974937;28;20846;-90
2022/07/07 09:45:01;;;;;;;3.83;3.57;;;19.80;98.00;;;;;;4976448;28;20451;-90
2022/07/07 09:47:27;;;;;;;4.70;4.03;;;19.90;97.70;;;;;;4976245;28;20443;-88
2022/07/07 09:50:02;;;;;;;6.50;3.73;;;20.00;97.60;;;;;;4983864;28;20503;-89
2022/07/07 09:52:29;;;;;;;4.40;4.00;;;19.90;97.90;;;;;;4989754;28;20494;-89
2022/07/07 09:54:57;;;;;;;4.70;4.30;;;19.70;98.30;;;;;;4980959;28;20587;-89
2022/07/07 09:57:22;;;;;;;4.67;4.27;;;19.70;98.10;;;;;;4974213;28;20436;-90
2022/07/07 09:59:48;;;;;;;4.33;4.00;;;19.60;98.30;;;;;;4986562;28;20792;-91
2022/07/07 10:02:34;;;;;;;4.60;4.20;;;19.60;98.80;;;;;;4989541;28;20186;-95
2022/07/07 10:05:01;;;;;;;4.83;4.10;;;19.60;98.60;;;;;;4993330;28;20193;-95
2022/07/07 10:07:34;;;;;;;4.73;4.20;;;19.60;98.90;;;;;;4983219;28;20455;-94
2022/07/07 10:10:06;;;;;;;3.50;3.30;;;19.50;99.20;;;;;;4990674;28;20952;-96
2022/07/07 10:12:49;;;;;;;3.27;2.90;;;19.30;99.70;;;;;;5006310;28;20459;-92
2022/07/07 10:15:15;;;;;;;6.70;3.03;;;19.40;99.90;;;;;;4990574;28;20866;-93
2022/07/07 10:17:45;;;;;;;3.60;3.30;;;19.30;99.90;;;;;;4995685;28;20467;-95
2022/07/07 10:20:13;;;;;;;3.60;2.77;;;19.30;99.90;;;;;;4991272;28;20247;-93
2022/07/07 10:22:40;;;;;;;3.37;2.70;;;19.10;99.90;;;;;;4991285;28;20468;-92
2022/07/07 10:25:08;;;;;;;2.50;2.30;;;19.30;99.90;;;;;;4988488;28;20443;-93
2022/07/07 10:27:34;;;;;;;2.73;2.60;;;19.40;99.90;;;;;;4991531;28;20458;-95
2022/07/07 10:30:03;;;;;;;2.77;2.50;;;19.50;99.90;;;;;;4987779;28;20933;-96
2022/07/07 10:32:44;;;;;;;3.70;3.17;;;19.70;99.90;;;;;;5025303;28;20200;-96
2022/07/07 10:35:14;;;;;;;4.30;3.17;;;19.90;99.60;;;;;;4991375;28;20569;-93
2022/07/07 10:37:52;;;;;;;3.60;3.30;;;19.80;99.30;;;;;;4990325;28;20444;-95
2022/07/07 10:40:23;;;;;;;4.00;3.30;;;20.00;99.20;;;;;;4990442;28;20487;-96
2022/07/07 10:43:26;;;;;;;4.33;4.03;;;19.80;99.50;;;;;;4992465;28;20443;-93
2022/07/07 10:45:54;;;;;;;3.93;3.63;;;20.20;98.70;;;;;;4989250;28;20530;-95
2022/07/07 10:48:46;;;;;;;4.10;3.80;;;20.20;98.60;;;;;;5023461;28;20456;-96
2022/07/07 10:51:27;;;;;;;4.43;3.60;;;20.80;98.10;;;;;;4987532;28;20457;-93
2022/07/07 10:54:12;;;;;;;3.70;3.40;;;21.10;96.90;;;;;;4988394;28;20459;-96
2022/07/07 10:57:05;;;;;;;3.77;3.47;;;20.70;97.00;;;;;;5002025;28;20416;-96
2022/07/07 11:05:27;;;;;;;3.40;3.20;;;20.30;97.30;;;;;;5007206;28;20830;-94
2022/07/07 11:08:10;;;;;;;3.23;3.00;;;20.00;97.90;;;;;;5266243;23;20876;-96
2022/07/07 11:10:42;;;;;;;3.83;3.53;;;20.50;97.60;;;;;;4998257;28;20436;-96
2022/07/07 11:13:18;;;;;;;3.67;3.37;;;20.80;97.60;;;;;;4996592;28;20486;-96
2022/07/07 11:15:49;;;;;;;3.93;3.40;;;21.00;97.10;;;;;;4986699;28;20446;-96
2022/07/07 11:18:24;;;;;;;4.90;3.60;;;20.30;97.50;;;;;;4989907;28;20458;-96
2022/07/07 11:20:56;;;;;;;4.20;3.80;;;20.00;97.30;;;;;;4989106;28;20423;-93
2022/07/07 11:23:22;;;;;;;3.60;3.30;;;19.70;97.70;;;;;;4996181;28;20440;-95
2022/07/07 11:25:51;;;;;;;3.43;3.13;;;19.70;98.10;;;;;;4987661;28;20435;-95
2022/07/07 11:28:17;;;;;;;3.47;3.27;;;19.60;98.30;;;;;;4991749;28;20444;-96
2022/07/07 11:30:42;;;;;;;4.10;3.30;;;19.60;98.80;;;;;;4990959;28;20991;-95
2022/07/07 11:33:09;;;;;;;3.10;2.90;;;19.50;98.90;;;;;;4999317;28;20289;-95
2022/07/07 11:35:37;;;;;;;3.70;3.40;;;19.40;98.90;;;;;;4993759;28;20265;-94
2022/07/07 11:40:43;;;;;;;3.90;3.40;;;19.50;99.20;;;;;;5157726;23;20487;-96
2022/07/07 11:43:26;;;;;;;3.33;3.10;;;19.40;99.20;;;;;;5015183;28;20436;-96
2022/07/07 11:45:52;;;;;;;3.27;2.90;;;19.40;99.60;;;;;;4993558;28;20193;-96
2022/07/07 11:48:18;;;;;;;3.63;3.33;;;19.50;99.80;;;;;;4983644;28;20540;-96
2022/07/07 11:50:45;;;;;;;3.87;3.57;;;19.40;99.90;;;;;;4991943;28;20194;-96
2022/07/07 11:53:11;;;;;;;3.63;3.33;;;19.50;99.90;;;;;;5008004;28;20236;-94
2022/07/07 11:55:37;;;;;;;3.70;3.40;;;19.70;99.90;;;;;;4967775;28;20465;-96
2022/07/07 11:58:04;;;;;;;3.80;3.50;;;19.90;99.70;;;;;;4990778;28;20487;-96
2022/07/07 12:00:32;;;;;;;4.77;2.90;;;20.00;99.70;;;;;;4980813;28;20440;-96
2022/07/07 12:03:06;;;;;;;3.50;2.90;;;20.00;99.40;;;;;;4975659;28;20531;-96
2022/07/07 12:05:45;;;;;;;3.33;3.13;;;20.10;99.00;;;;;;4973254;28;20451;-95
2022/07/07 12:13:26;;;;;;;3.20;2.90;;;19.80;99.10;;;;;;5111593;22;20456;-95
2022/07/07 12:15:57;;;;;;;4.00;3.10;;;19.70;99.80;;;;;;5015602;28;20455;-94
2022/07/07 12:18:37;;;;;;;3.27;3.07;;;19.80;99.90;;;;;;5004783;28;20448;-96
2022/07/07 12:21:11;;;;;;;3.03;2.83;;;19.80;99.90;;;;;;5001233;28;20433;-96
2022/07/07 12:23:41;;;;;;;4.53;2.83;;;19.90;99.90;;;;;;4995769;28;20876;-95
2022/07/07 12:26:18;;;;;;;3.60;3.30;;;19.80;99.90;;;;;;4991412;28;20563;-94
2022/07/07 12:28:44;;;;;;;3.60;3.30;;;19.80;99.90;;;;;;5015529;28;20463;-90
2022/07/07 12:33:45;;;;;;;3.50;3.17;;;19.70;99.90;;;;;;5250319;22;20456;-92
2022/07/07 12:36:11;;;;;;;2.40;2.20;;;19.70;99.90;;;;;;4986851;28;20518;-91
2022/07/07 12:38:45;;;;;;;3.00;2.40;;;19.70;99.30;;;;;;4987287;28;20439;-92
2022/07/07 12:41:34;;;;;;;3.03;2.80;;;19.70;99.20;;;;;;4986150;28;20722;-90
2022/07/07 12:44:14;;;;;;;3.67;2.83;;;19.70;99.60;;;;;;4985436;28;20444;-92
2022/07/07 12:46:40;;;;;;;2.80;2.60;;;19.70;99.20;;;;;;5000566;28;20443;-91
2022/07/07 12:49:06;;;;;;;2.33;2.10;;;19.90;99.40;;;;;;4981488;28;20443;-89
2022/07/07 12:51:37;;;;;;;4.50;2.30;;;20.00;98.90;;;;;;4984162;28;20467;-90
2022/07/07 12:54:03;;;;;;;3.30;2.70;;;20.10;99.10;;;;;;4985615;28;21013;-92
2022/07/07 12:56:41;;;;;;;4.50;2.40;;;20.20;98.90;;;;;;4983768;28;20431;-92
2022/07/07 12:59:19;;;;;;;3.30;2.80;;;20.20;99.00;;;;;;4982138;28;20961;-89
2022/07/07 13:01:52;;;;;;;3.40;2.80;;;20.20;98.50;;;;;;4995849;28;20786;-90
2022/07/07 13:04:21;;;;;;;3.60;3.20;;;20.20;98.70;;;;;;5002064;28;20436;-90
2022/07/07 13:06:48;;;;;;;3.37;3.07;;;20.00;98.00;;;;;;5005557;28;20439;-90
2022/07/07 13:09:26;;;;;;;2.90;2.67;;;20.00;98.80;;;;;;5002624;28;20455;-92
2022/07/07 13:11:52;;;;;;;2.50;2.33;;;20.00;98.50;;;;;;4978741;28;20956;-90
2022/07/07 13:14:19;;;;;;;2.53;2.33;;;20.00;98.50;;;;;;5003896;28;20479;-90
2022/07/07 13:16:45;;;;;;;2.83;2.63;;;20.00;98.70;;;;;;4985920;28;20451;-92
2022/07/07 13:19:11;;;;;;;4.07;3.33;;;20.10;98.90;;;;;;5006472;28;20481;-92
2022/07/07 13:21:36;;;;;;;3.07;2.80;;;20.10;99.10;;;;;;5001942;28;20185;-92